KGYY/GYY METAR and TAF weather

Enter ICAO airport designator
Station Type Date Time Source
KGYY METAR 2020/12/06 01:45 UTC NOAA

KGYY 060145Z 02005KT 10SM OVC032 02/M03 A3014


Station Type Date Time Source
KGYY Decoded METAR 2020/12/06 01:45 UTC NOAA

Gary Regional, IN, United States (KGYY) 41-37N 087-25W
Dec 05, 2020 - 08:45 PM EST / 2020.12.06 0145 UTC
Wind: from the NNE (020 degrees) at 6 MPH (5 KT):0
Visibility: 10 mile(s):0
Sky conditions: overcast
Temperature: 35 F (2 C)
Windchill: 30 F (-1 C):1
Dew Point: 26 F (-3 C)
Relative Humidity: 69%
Pressure (altimeter): 30.14 in. Hg (1020 hPa)
ob: KGYY 060145Z 02005KT 10SM OVC032 02/M03 A3014
cycle: 2

Station Type Date Time Source
KGYY TAF 2020/12/05 21:42 UTC NOAA

TAF
AMD KGYY 052040Z 0521/0618 36007KT P6SM OVC030
FM052300 VRB03KT P6SM SCT020 OVC035
FM061300 VRB04KT P6SM VCSH OVC025

Example: see airport list